sensor_id;sensor_type;location;lat;lon;timestamp;P1;durP1;ratioP1;P2;durP2;ratioP2
31966;SDS011;18496;52.042;6.812;2023-05-07T00:02:00;12.35;;;8.85;;
31966;SDS011;18496;52.042;6.812;2023-05-07T00:04:04;10.35;;;8.85;;
31966;SDS011;18496;52.042;6.812;2023-05-07T00:06:08;12.30;;;9.32;;
31966;SDS011;18496;52.042;6.812;2023-05-07T00:08:13;13.07;;;8.13;;
31966;SDS011;18496;52.042;6.812;2023-05-07T00:10:16;11.77;;;9.10;;
31966;SDS011;18496;52.042;6.812;2023-05-07T00:12:20;14.43;;;9.45;;
31966;SDS011;18496;52.042;6.812;2023-05-07T00:14:24;11.45;;;9.50;;
31966;SDS011;18496;52.042;6.812;2023-05-07T00:16:28;15.48;;;9.93;;
31966;SDS011;18496;52.042;6.812;2023-05-07T00:18:31;12.43;;;8.85;;
31966;SDS011;18496;52.042;6.812;2023-05-07T00:20:35;9.52;;;8.45;;
31966;SDS011;18496;52.042;6.812;2023-05-07T00:22:39;11.07;;;8.90;;
31966;SDS011;18496;52.042;6.812;2023-05-07T00:24:46;12.15;;;9.48;;
31966;SDS011;18496;52.042;6.812;2023-05-07T00:26:52;12.55;;;7.70;;
31966;SDS011;18496;52.042;6.812;2023-05-07T00:28:56;13.38;;;9.35;;
31966;SDS011;18496;52.042;6.812;2023-05-07T00:31:00;10.43;;;9.07;;
31966;SDS011;18496;52.042;6.812;2023-05-07T00:33:04;10.25;;;8.07;;
31966;SDS011;18496;52.042;6.812;2023-05-07T00:35:07;11.82;;;9.00;;
31966;SDS011;18496;52.042;6.812;2023-05-07T00:37:11;18.38;;;9.55;;
31966;SDS011;18496;52.042;6.812;2023-05-07T00:39:15;14.57;;;8.60;;
31966;SDS011;18496;52.042;6.812;2023-05-07T00:41:19;11.95;;;8.98;;
31966;SDS011;18496;52.042;6.812;2023-05-07T00:43:23;12.27;;;9.60;;
31966;SDS011;18496;52.042;6.812;2023-05-07T00:45:27;12.18;;;8.75;;
31966;SDS011;18496;52.042;6.812;2023-05-07T00:47:31;11.85;;;8.57;;
31966;SDS011;18496;52.042;6.812;2023-05-07T00:49:41;8.18;;;7.32;;
31966;SDS011;18496;52.042;6.812;2023-05-07T00:51:46;10.15;;;9.05;;
31966;SDS011;18496;52.042;6.812;2023-05-07T00:53:50;11.73;;;9.25;;
31966;SDS011;18496;52.042;6.812;2023-05-07T00:55:54;11.70;;;9.63;;
31966;SDS011;18496;52.042;6.812;2023-05-07T00:57:59;11.73;;;10.05;;
31966;SDS011;18496;52.042;6.812;2023-05-07T01:00:05;11.80;;;9.38;;
31966;SDS011;18496;52.042;6.812;2023-05-07T01:02:11;12.60;;;9.27;;
31966;SDS011;18496;52.042;6.812;2023-05-07T01:04:15;10.68;;;9.15;;
31966;SDS011;18496;52.042;6.812;2023-05-07T01:06:19;11.25;;;8.68;;
31966;SDS011;18496;52.042;6.812;2023-05-07T01:08:25;15.05;;;9.52;;
31966;SDS011;18496;52.042;6.812;2023-05-07T01:10:31;10.55;;;7.97;;
31966;SDS011;18496;52.042;6.812;2023-05-07T01:12:37;14.52;;;8.90;;
31966;SDS011;18496;52.042;6.812;2023-05-07T01:14:43;10.55;;;9.25;;
31966;SDS011;18496;52.042;6.812;2023-05-07T01:16:47;10.80;;;8.82;;
31966;SDS011;18496;52.042;6.812;2023-05-07T01:18:55;10.93;;;9.23;;
31966;SDS011;18496;52.042;6.812;2023-05-07T01:20:58;12.25;;;9.23;;
31966;SDS011;18496;52.042;6.812;2023-05-07T01:23:05;9.60;;;8.60;;
31966;SDS011;18496;52.042;6.812;2023-05-07T01:25:18;10.25;;;8.38;;
31966;SDS011;18496;52.042;6.812;2023-05-07T01:27:26;11.90;;;9.95;;
31966;SDS011;18496;52.042;6.812;2023-05-07T01:29:30;13.40;;;10.38;;
31966;SDS011;18496;52.042;6.812;2023-05-07T01:31:34;12.82;;;10.40;;
31966;SDS011;18496;52.042;6.812;2023-05-07T01:33:40;11.82;;;8.63;;
31966;SDS011;18496;52.042;6.812;2023-05-07T01:35:46;12.63;;;10.10;;
31966;SDS011;18496;52.042;6.812;2023-05-07T01:37:52;12.55;;;9.27;;
31966;SDS011;18496;52.042;6.812;2023-05-07T01:39:57;11.80;;;8.75;;
31966;SDS011;18496;52.042;6.812;2023-05-07T01:42:01;11.02;;;9.40;;
31966;SDS011;18496;52.042;6.812;2023-05-07T01:44:05;17.23;;;11.05;;
31966;SDS011;18496;52.042;6.812;2023-05-07T01:46:09;14.30;;;11.23;;
31966;SDS011;18496;52.042;6.812;2023-05-07T01:48:14;12.95;;;10.02;;
31966;SDS011;18496;52.042;6.812;2023-05-07T01:50:18;17.27;;;10.77;;
31966;SDS011;18496;52.042;6.812;2023-05-07T01:52:23;11.73;;;10.07;;
31966;SDS011;18496;52.042;6.812;2023-05-07T01:54:28;8.52;;;7.47;;
31966;SDS011;18496;52.042;6.812;2023-05-07T01:56:33;14.27;;;11.05;;
31966;SDS011;18496;52.042;6.812;2023-05-07T01:58:38;13.43;;;11.48;;
31966;SDS011;18496;52.042;6.812;2023-05-07T02:00:42;9.85;;;8.70;;
31966;SDS011;18496;52.042;6.812;2023-05-07T02:02:46;14.45;;;10.02;;
31966;SDS011;18496;52.042;6.812;2023-05-07T02:05:13;13.85;;;11.48;;
31966;SDS011;18496;52.042;6.812;2023-05-07T02:07:19;13.82;;;9.90;;
31966;SDS011;18496;52.042;6.812;2023-05-07T02:09:23;18.58;;;13.07;;
31966;SDS011;18496;52.042;6.812;2023-05-07T02:11:28;14.90;;;12.27;;
31966;SDS011;18496;52.042;6.812;2023-05-07T02:13:32;16.40;;;11.95;;
31966;SDS011;18496;52.042;6.812;2023-05-07T02:15:37;15.25;;;10.40;;
31966;SDS011;18496;52.042;6.812;2023-05-07T02:20:05;13.65;;;11.30;;
31966;SDS011;18496;52.042;6.812;2023-05-07T02:22:10;17.15;;;11.68;;
31966;SDS011;18496;52.042;6.812;2023-05-07T02:24:14;15.98;;;12.57;;
31966;SDS011;18496;52.042;6.812;2023-05-07T02:26:20;13.13;;;10.77;;
31966;SDS011;18496;52.042;6.812;2023-05-07T02:28:25;15.32;;;12.23;;
31966;SDS011;18496;52.042;6.812;2023-05-07T02:30:38;14.90;;;10.98;;
31966;SDS011;18496;52.042;6.812;2023-05-07T02:32:42;15.63;;;11.23;;
31966;SDS011;18496;52.042;6.812;2023-05-07T02:34:46;17.30;;;12.15;;
31966;SDS011;18496;52.042;6.812;2023-05-07T02:36:50;15.32;;;13.05;;
31966;SDS011;18496;52.042;6.812;2023-05-07T02:38:57;14.35;;;11.77;;
31966;SDS011;18496;52.042;6.812;2023-05-07T02:41:01;14.40;;;11.88;;
31966;SDS011;18496;52.042;6.812;2023-05-07T02:43:05;16.73;;;13.38;;
31966;SDS011;18496;52.042;6.812;2023-05-07T02:45:09;12.90;;;10.70;;
31966;SDS011;18496;52.042;6.812;2023-05-07T02:47:14;18.52;;;12.73;;
31966;SDS011;18496;52.042;6.812;2023-05-07T02:49:20;14.57;;;11.70;;
31966;SDS011;18496;52.042;6.812;2023-05-07T02:51:25;17.08;;;12.90;;
31966;SDS011;18496;52.042;6.812;2023-05-07T02:53:32;15.48;;;12.82;;
31966;SDS011;18496;52.042;6.812;2023-05-07T02:55:36;15.90;;;12.15;;
31966;SDS011;18496;52.042;6.812;2023-05-07T02:57:39;12.88;;;10.73;;
31966;SDS011;18496;52.042;6.812;2023-05-07T02:59:44;17.58;;;12.93;;
31966;SDS011;18496;52.042;6.812;2023-05-07T03:01:49;15.00;;;12.27;;
31966;SDS011;18496;52.042;6.812;2023-05-07T03:03:53;14.18;;;12.25;;
31966;SDS011;18496;52.042;6.812;2023-05-07T03:05:57;12.35;;;10.13;;
31966;SDS011;18496;52.042;6.812;2023-05-07T03:08:01;15.45;;;12.98;;
31966;SDS011;18496;52.042;6.812;2023-05-07T03:10:05;16.17;;;11.77;;
31966;SDS011;18496;52.042;6.812;2023-05-07T03:12:09;15.15;;;12.55;;
31966;SDS011;18496;52.042;6.812;2023-05-07T03:14:13;18.17;;;13.50;;
31966;SDS011;18496;52.042;6.812;2023-05-07T03:16:17;14.43;;;11.52;;
31966;SDS011;18496;52.042;6.812;2023-05-07T03:18:20;18.25;;;12.80;;
31966;SDS011;18496;52.042;6.812;2023-05-07T03:20:24;15.88;;;13.23;;
31966;SDS011;18496;52.042;6.812;2023-05-07T03:22:28;16.58;;;12.43;;
31966;SDS011;18496;52.042;6.812;2023-05-07T03:24:31;18.00;;;13.05;;
31966;SDS011;18496;52.042;6.812;2023-05-07T03:26:35;17.05;;;12.27;;
31966;SDS011;18496;52.042;6.812;2023-05-07T03:28:40;15.30;;;11.73;;
31966;SDS011;18496;52.042;6.812;2023-05-07T03:30:48;17.10;;;12.30;;
31966;SDS011;18496;52.042;6.812;2023-05-07T03:32:52;14.07;;;10.00;;
31966;SDS011;18496;52.042;6.812;2023-05-07T03:34:56;19.52;;;13.43;;
31966;SDS011;18496;52.042;6.812;2023-05-07T03:36:59;19.20;;;10.63;;
31966;SDS011;18496;52.042;6.812;2023-05-07T03:39:03;17.65;;;12.35;;
31966;SDS011;18496;52.042;6.812;2023-05-07T03:41:14;18.03;;;13.17;;
31966;SDS011;18496;52.042;6.812;2023-05-07T03:43:18;22.83;;;12.55;;
31966;SDS011;18496;52.042;6.812;2023-05-07T03:45:27;14.90;;;11.63;;
31966;SDS011;18496;52.042;6.812;2023-05-07T03:49:55;19.20;;;12.35;;
31966;SDS011;18496;52.042;6.812;2023-05-07T03:52:01;24.02;;;14.75;;
31966;SDS011;18496;52.042;6.812;2023-05-07T03:54:05;25.48;;;14.65;;
31966;SDS011;18496;52.042;6.812;2023-05-07T03:56:10;22.88;;;13.55;;
31966;SDS011;18496;52.042;6.812;2023-05-07T03:58:16;22.63;;;14.05;;
31966;SDS011;18496;52.042;6.812;2023-05-07T04:00:20;26.08;;;14.02;;
31966;SDS011;18496;52.042;6.812;2023-05-07T04:02:24;22.25;;;14.27;;
31966;SDS011;18496;52.042;6.812;2023-05-07T04:04:28;19.65;;;13.27;;
31966;SDS011;18496;52.042;6.812;2023-05-07T04:06:38;22.05;;;13.80;;
31966;SDS011;18496;52.042;6.812;2023-05-07T04:08:41;24.65;;;14.65;;
31966;SDS011;18496;52.042;6.812;2023-05-07T04:10:45;17.42;;;12.38;;
31966;SDS011;18496;52.042;6.812;2023-05-07T04:12:49;20.85;;;14.85;;
31966;SDS011;18496;52.042;6.812;2023-05-07T04:14:58;25.95;;;14.20;;
31966;SDS011;18496;52.042;6.812;2023-05-07T04:17:01;23.38;;;14.95;;
31966;SDS011;18496;52.042;6.812;2023-05-07T04:19:06;19.65;;;13.73;;
31966;SDS011;18496;52.042;6.812;2023-05-07T04:21:15;19.65;;;13.73;;
31966;SDS011;18496;52.042;6.812;2023-05-07T04:23:20;21.17;;;13.57;;
31966;SDS011;18496;52.042;6.812;2023-05-07T04:25:23;21.45;;;14.60;;
31966;SDS011;18496;52.042;6.812;2023-05-07T04:27:31;24.63;;;14.80;;
31966;SDS011;18496;52.042;6.812;2023-05-07T04:29:36;25.40;;;15.48;;
31966;SDS011;18496;52.042;6.812;2023-05-07T04:31:39;21.73;;;14.70;;
31966;SDS011;18496;52.042;6.812;2023-05-07T04:33:43;22.67;;;15.13;;
31966;SDS011;18496;52.042;6.812;2023-05-07T04:35:50;21.55;;;14.52;;
31966;SDS011;18496;52.042;6.812;2023-05-07T04:37:54;24.40;;;15.32;;
31966;SDS011;18496;52.042;6.812;2023-05-07T04:39:58;19.05;;;13.02;;
31966;SDS011;18496;52.042;6.812;2023-05-07T04:42:02;23.25;;;15.43;;
31966;SDS011;18496;52.042;6.812;2023-05-07T04:44:06;20.48;;;13.35;;
31966;SDS011;18496;52.042;6.812;2023-05-07T04:46:12;25.02;;;15.20;;
31966;SDS011;18496;52.042;6.812;2023-05-07T04:48:17;25.48;;;16.20;;
31966;SDS011;18496;52.042;6.812;2023-05-07T04:50:24;22.27;;;15.77;;
31966;SDS011;18496;52.042;6.812;2023-05-07T04:52:32;21.50;;;14.82;;
31966;SDS011;18496;52.042;6.812;2023-05-07T04:54:36;23.08;;;14.95;;
31966;SDS011;18496;52.042;6.812;2023-05-07T04:56:40;25.98;;;15.98;;
31966;SDS011;18496;52.042;6.812;2023-05-07T04:58:44;23.17;;;16.10;;
31966;SDS011;18496;52.042;6.812;2023-05-07T05:00:52;17.77;;;11.52;;
31966;SDS011;18496;52.042;6.812;2023-05-07T05:02:56;24.48;;;16.25;;
31966;SDS011;18496;52.042;6.812;2023-05-07T05:05:00;24.48;;;15.00;;
31966;SDS011;18496;52.042;6.812;2023-05-07T05:07:07;22.63;;;16.15;;
31966;SDS011;18496;52.042;6.812;2023-05-07T05:09:11;20.25;;;13.57;;
31966;SDS011;18496;52.042;6.812;2023-05-07T05:11:17;24.55;;;16.42;;
31966;SDS011;18496;52.042;6.812;2023-05-07T05:13:21;26.15;;;16.13;;
31966;SDS011;18496;52.042;6.812;2023-05-07T05:15:25;30.25;;;17.58;;
31966;SDS011;18496;52.042;6.812;2023-05-07T05:17:29;26.92;;;14.70;;
31966;SDS011;18496;52.042;6.812;2023-05-07T05:19:33;26.25;;;14.82;;
31966;SDS011;18496;52.042;6.812;2023-05-07T05:21:36;22.13;;;14.57;;
31966;SDS011;18496;52.042;6.812;2023-05-07T05:23:44;26.48;;;16.38;;
31966;SDS011;18496;52.042;6.812;2023-05-07T05:25:49;27.25;;;16.38;;
31966;SDS011;18496;52.042;6.812;2023-05-07T05:27:53;30.52;;;17.73;;
31966;SDS011;18496;52.042;6.812;2023-05-07T05:29:57;24.38;;;16.38;;
31966;SDS011;18496;52.042;6.812;2023-05-07T05:32:01;25.70;;;15.98;;
31966;SDS011;18496;52.042;6.812;2023-05-07T05:34:08;32.28;;;17.90;;
31966;SDS011;18496;52.042;6.812;2023-05-07T05:36:12;22.55;;;15.77;;
31966;SDS011;18496;52.042;6.812;2023-05-07T05:38:16;24.10;;;16.23;;
31966;SDS011;18496;52.042;6.812;2023-05-07T05:40:20;27.33;;;16.45;;
31966;SDS011;18496;52.042;6.812;2023-05-07T05:42:24;23.80;;;15.55;;
31966;SDS011;18496;52.042;6.812;2023-05-07T05:44:28;26.92;;;16.75;;
31966;SDS011;18496;52.042;6.812;2023-05-07T05:46:31;24.48;;;16.10;;
31966;SDS011;18496;52.042;6.812;2023-05-07T05:48:35;25.30;;;15.65;;
31966;SDS011;18496;52.042;6.812;2023-05-07T05:50:41;26.98;;;17.05;;
31966;SDS011;18496;52.042;6.812;2023-05-07T05:52:46;25.52;;;17.08;;
31966;SDS011;18496;52.042;6.812;2023-05-07T05:54:51;29.05;;;16.27;;
31966;SDS011;18496;52.042;6.812;2023-05-07T05:56:57;26.05;;;16.67;;
31966;SDS011;18496;52.042;6.812;2023-05-07T05:59:01;26.50;;;16.77;;
31966;SDS011;18496;52.042;6.812;2023-05-07T06:01:06;27.55;;;17.95;;
31966;SDS011;18496;52.042;6.812;2023-05-07T06:03:11;23.13;;;14.93;;
31966;SDS011;18496;52.042;6.812;2023-05-07T06:05:15;27.83;;;16.38;;
31966;SDS011;18496;52.042;6.812;2023-05-07T06:07:20;28.83;;;15.90;;
31966;SDS011;18496;52.042;6.812;2023-05-07T06:09:24;32.42;;;18.08;;
31966;SDS011;18496;52.042;6.812;2023-05-07T06:11:28;26.60;;;16.50;;
31966;SDS011;18496;52.042;6.812;2023-05-07T06:13:31;27.60;;;16.65;;
31966;SDS011;18496;52.042;6.812;2023-05-07T06:15:36;29.10;;;17.10;;
31966;SDS011;18496;52.042;6.812;2023-05-07T06:17:45;24.88;;;16.60;;
31966;SDS011;18496;52.042;6.812;2023-05-07T06:19:48;22.85;;;14.90;;
31966;SDS011;18496;52.042;6.812;2023-05-07T06:21:54;25.25;;;16.85;;
31966;SDS011;18496;52.042;6.812;2023-05-07T06:24:00;21.63;;;15.48;;
31966;SDS011;18496;52.042;6.812;2023-05-07T06:26:04;22.67;;;15.65;;
31966;SDS011;18496;52.042;6.812;2023-05-07T06:28:14;25.33;;;16.48;;
31966;SDS011;18496;52.042;6.812;2023-05-07T06:30:19;35.75;;;20.55;;
31966;SDS011;18496;52.042;6.812;2023-05-07T06:32:23;24.80;;;15.88;;
31966;SDS011;18496;52.042;6.812;2023-05-07T06:34:28;28.98;;;17.65;;
31966;SDS011;18496;52.042;6.812;2023-05-07T06:36:32;25.27;;;17.33;;
31966;SDS011;18496;52.042;6.812;2023-05-07T06:38:39;28.83;;;17.80;;
31966;SDS011;18496;52.042;6.812;2023-05-07T06:40:43;23.02;;;16.73;;
31966;SDS011;18496;52.042;6.812;2023-05-07T06:42:47;24.27;;;16.58;;
31966;SDS011;18496;52.042;6.812;2023-05-07T06:45:07;23.30;;;16.10;;
31966;SDS011;18496;52.042;6.812;2023-05-07T06:47:12;26.48;;;15.15;;
31966;SDS011;18496;52.042;6.812;2023-05-07T06:49:17;21.55;;;14.50;;
31966;SDS011;18496;52.042;6.812;2023-05-07T06:51:22;25.05;;;17.65;;
31966;SDS011;18496;52.042;6.812;2023-05-07T06:53:26;22.55;;;14.65;;
31966;SDS011;18496;52.042;6.812;2023-05-07T06:55:32;27.20;;;16.95;;
31966;SDS011;18496;52.042;6.812;2023-05-07T06:57:36;25.70;;;16.05;;
31966;SDS011;18496;52.042;6.812;2023-05-07T06:59:40;27.33;;;16.75;;
31966;SDS011;18496;52.042;6.812;2023-05-07T07:01:45;22.65;;;15.65;;
31966;SDS011;18496;52.042;6.812;2023-05-07T07:03:49;24.10;;;17.48;;
31966;SDS011;18496;52.042;6.812;2023-05-07T07:05:55;23.17;;;15.65;;
31966;SDS011;18496;52.042;6.812;2023-05-07T07:07:58;27.80;;;17.33;;
31966;SDS011;18496;52.042;6.812;2023-05-07T07:10:02;26.55;;;17.58;;
31966;SDS011;18496;52.042;6.812;2023-05-07T07:12:08;28.20;;;16.77;;
31966;SDS011;18496;52.042;6.812;2023-05-07T07:14:14;21.45;;;15.05;;
31966;SDS011;18496;52.042;6.812;2023-05-07T07:16:23;22.10;;;14.30;;
31966;SDS011;18496;52.042;6.812;2023-05-07T07:18:28;26.58;;;16.73;;
31966;SDS011;18496;52.042;6.812;2023-05-07T07:20:32;22.90;;;15.75;;
31966;SDS011;18496;52.042;6.812;2023-05-07T07:22:36;25.95;;;16.88;;
31966;SDS011;18496;52.042;6.812;2023-05-07T07:24:39;24.10;;;15.43;;
31966;SDS011;18496;52.042;6.812;2023-05-07T07:26:45;30.27;;;16.70;;
31966;SDS011;18496;52.042;6.812;2023-05-07T07:28:50;25.52;;;16.45;;
31966;SDS011;18496;52.042;6.812;2023-05-07T07:30:57;23.92;;;15.45;;
31966;SDS011;18496;52.042;6.812;2023-05-07T07:33:01;24.33;;;16.15;;
31966;SDS011;18496;52.042;6.812;2023-05-07T07:35:08;22.38;;;16.52;;
31966;SDS011;18496;52.042;6.812;2023-05-07T07:37:13;25.67;;;17.25;;
31966;SDS011;18496;52.042;6.812;2023-05-07T07:39:16;26.98;;;16.30;;
31966;SDS011;18496;52.042;6.812;2023-05-07T07:41:21;27.67;;;15.90;;
31966;SDS011;18496;52.042;6.812;2023-05-07T07:43:25;23.60;;;16.02;;
31966;SDS011;18496;52.042;6.812;2023-05-07T07:45:29;21.23;;;15.48;;
31966;SDS011;18496;52.042;6.812;2023-05-07T07:47:33;25.20;;;16.65;;
31966;SDS011;18496;52.042;6.812;2023-05-07T07:49:36;22.42;;;15.05;;
31966;SDS011;18496;52.042;6.812;2023-05-07T07:51:43;24.60;;;15.68;;
31966;SDS011;18496;52.042;6.812;2023-05-07T07:53:48;20.73;;;14.32;;
31966;SDS011;18496;52.042;6.812;2023-05-07T07:55:51;24.15;;;16.08;;
31966;SDS011;18496;52.042;6.812;2023-05-07T07:57:58;26.60;;;15.77;;
31966;SDS011;18496;52.042;6.812;2023-05-07T08:00:02;23.60;;;14.20;;
31966;SDS011;18496;52.042;6.812;2023-05-07T08:02:08;23.27;;;16.02;;
31966;SDS011;18496;52.042;6.812;2023-05-07T08:04:13;23.08;;;14.93;;
31966;SDS011;18496;52.042;6.812;2023-05-07T08:06:19;25.17;;;15.07;;
31966;SDS011;18496;52.042;6.812;2023-05-07T08:08:23;24.80;;;16.45;;
31966;SDS011;18496;52.042;6.812;2023-05-07T08:10:27;22.80;;;15.18;;
31966;SDS011;18496;52.042;6.812;2023-05-07T08:12:37;24.83;;;15.43;;
31966;SDS011;18496;52.042;6.812;2023-05-07T08:14:41;20.73;;;12.95;;
31966;SDS011;18496;52.042;6.812;2023-05-07T08:16:45;21.45;;;15.07;;
31966;SDS011;18496;52.042;6.812;2023-05-07T08:18:50;22.52;;;15.27;;
31966;SDS011;18496;52.042;6.812;2023-05-07T08:20:54;23.13;;;15.10;;
31966;SDS011;18496;52.042;6.812;2023-05-07T08:23:00;24.95;;;14.45;;
31966;SDS011;18496;52.042;6.812;2023-05-07T08:25:04;21.95;;;14.88;;
31966;SDS011;18496;52.042;6.812;2023-05-07T08:27:09;21.85;;;15.23;;
31966;SDS011;18496;52.042;6.812;2023-05-07T08:29:12;24.48;;;16.08;;
31966;SDS011;18496;52.042;6.812;2023-05-07T08:31:16;23.58;;;16.30;;
31966;SDS011;18496;52.042;6.812;2023-05-07T08:33:22;24.77;;;16.50;;
31966;SDS011;18496;52.042;6.812;2023-05-07T08:35:25;25.23;;;15.13;;
31966;SDS011;18496;52.042;6.812;2023-05-07T08:37:30;24.20;;;15.65;;
31966;SDS011;18496;52.042;6.812;2023-05-07T08:39:34;24.35;;;16.20;;
31966;SDS011;18496;52.042;6.812;2023-05-07T08:41:39;23.88;;;14.95;;
31966;SDS011;18496;52.042;6.812;2023-05-07T08:43:45;33.30;;;16.92;;
31966;SDS011;18496;52.042;6.812;2023-05-07T08:45:53;26.33;;;15.27;;
31966;SDS011;18496;52.042;6.812;2023-05-07T08:48:01;24.75;;;14.75;;
31966;SDS011;18496;52.042;6.812;2023-05-07T08:50:10;25.70;;;16.50;;
31966;SDS011;18496;52.042;6.812;2023-05-07T08:52:15;24.55;;;16.40;;
31966;SDS011;18496;52.042;6.812;2023-05-07T08:54:20;20.08;;;14.32;;
31966;SDS011;18496;52.042;6.812;2023-05-07T08:56:25;20.95;;;13.77;;
31966;SDS011;18496;52.042;6.812;2023-05-07T08:58:30;20.20;;;14.30;;
31966;SDS011;18496;52.042;6.812;2023-05-07T09:00:34;23.80;;;15.30;;
31966;SDS011;18496;52.042;6.812;2023-05-07T09:02:40;23.77;;;16.13;;
31966;SDS011;18496;52.042;6.812;2023-05-07T09:04:45;24.13;;;15.07;;
31966;SDS011;18496;52.042;6.812;2023-05-07T09:06:49;23.52;;;14.05;;
31966;SDS011;18496;52.042;6.812;2023-05-07T09:08:56;22.38;;;14.65;;
31966;SDS011;18496;52.042;6.812;2023-05-07T09:11:05;23.20;;;15.02;;
31966;SDS011;18496;52.042;6.812;2023-05-07T09:13:08;25.88;;;13.88;;
31966;SDS011;18496;52.042;6.812;2023-05-07T09:15:16;24.10;;;14.57;;
31966;SDS011;18496;52.042;6.812;2023-05-07T09:17:21;21.52;;;15.32;;
31966;SDS011;18496;52.042;6.812;2023-05-07T09:19:25;26.10;;;14.52;;
31966;SDS011;18496;52.042;6.812;2023-05-07T09:21:31;24.55;;;14.65;;
31966;SDS011;18496;52.042;6.812;2023-05-07T09:23:38;20.13;;;13.02;;
31966;SDS011;18496;52.042;6.812;2023-05-07T09:25:42;24.45;;;14.23;;
31966;SDS011;18496;52.042;6.812;2023-05-07T09:27:52;20.35;;;13.30;;
31966;SDS011;18496;52.042;6.812;2023-05-07T09:29:56;18.25;;;12.98;;
31966;SDS011;18496;52.042;6.812;2023-05-07T09:31:59;24.48;;;17.10;;
31966;SDS011;18496;52.042;6.812;2023-05-07T09:34:04;31.58;;;13.88;;
31966;SDS011;18496;52.042;6.812;2023-05-07T09:36:10;25.63;;;15.75;;
31966;SDS011;18496;52.042;6.812;2023-05-07T09:38:16;22.33;;;15.25;;
31966;SDS011;18496;52.042;6.812;2023-05-07T09:40:22;35.38;;;13.45;;
31966;SDS011;18496;52.042;6.812;2023-05-07T09:42:28;19.20;;;12.63;;
31966;SDS011;18496;52.042;6.812;2023-05-07T09:44:37;18.58;;;13.27;;
31966;SDS011;18496;52.042;6.812;2023-05-07T09:46:46;24.20;;;14.02;;
31966;SDS011;18496;52.042;6.812;2023-05-07T09:49:01;24.88;;;13.10;;
31966;SDS011;18496;52.042;6.812;2023-05-07T09:51:30;24.10;;;13.45;;
31966;SDS011;18496;52.042;6.812;2023-05-07T09:53:36;22.92;;;13.90;;
31966;SDS011;18496;52.042;6.812;2023-05-07T09:55:41;27.50;;;14.23;;
31966;SDS011;18496;52.042;6.812;2023-05-07T09:57:47;20.27;;;12.93;;
31966;SDS011;18496;52.042;6.812;2023-05-07T09:59:55;22.35;;;14.35;;
31966;SDS011;18496;52.042;6.812;2023-05-07T10:02:01;18.63;;;13.93;;
31966;SDS011;18496;52.042;6.812;2023-05-07T10:04:06;21.30;;;13.45;;
31966;SDS011;18496;52.042;6.812;2023-05-07T10:06:12;19.77;;;12.45;;
31966;SDS011;18496;52.042;6.812;2023-05-07T10:08:17;20.30;;;11.90;;
31966;SDS011;18496;52.042;6.812;2023-05-07T10:10:24;20.30;;;12.48;;
31966;SDS011;18496;52.042;6.812;2023-05-07T10:12:29;20.38;;;12.95;;
31966;SDS011;18496;52.042;6.812;2023-05-07T10:14:40;20.08;;;13.23;;
31966;SDS011;18496;52.042;6.812;2023-05-07T10:16:45;20.05;;;12.40;;
31966;SDS011;18496;52.042;6.812;2023-05-07T10:18:53;18.10;;;12.18;;
31966;SDS011;18496;52.042;6.812;2023-05-07T10:21:07;21.42;;;13.00;;
31966;SDS011;18496;52.042;6.812;2023-05-07T10:23:14;16.52;;;11.25;;
31966;SDS011;18496;52.042;6.812;2023-05-07T10:25:28;24.52;;;13.20;;
31966;SDS011;18496;52.042;6.812;2023-05-07T10:27:35;21.88;;;14.15;;
31966;SDS011;18496;52.042;6.812;2023-05-07T10:29:55;18.45;;;12.02;;
31966;SDS011;18496;52.042;6.812;2023-05-07T10:34:30;18.10;;;11.80;;
31966;SDS011;18496;52.042;6.812;2023-05-07T10:36:39;20.95;;;13.43;;
31966;SDS011;18496;52.042;6.812;2023-05-07T10:38:43;19.48;;;14.07;;
31966;SDS011;18496;52.042;6.812;2023-05-07T10:40:50;19.75;;;13.32;;
31966;SDS011;18496;52.042;6.812;2023-05-07T10:45:11;18.58;;;12.77;;
31966;SDS011;18496;52.042;6.812;2023-05-07T10:47:16;22.00;;;13.82;;
31966;SDS011;18496;52.042;6.812;2023-05-07T10:49:24;20.08;;;14.00;;
31966;SDS011;18496;52.042;6.812;2023-05-07T10:51:35;18.08;;;13.13;;
31966;SDS011;18496;52.042;6.812;2023-05-07T10:53:47;21.92;;;12.65;;
31966;SDS011;18496;52.042;6.812;2023-05-07T10:56:23;21.88;;;14.52;;
31966;SDS011;18496;52.042;6.812;2023-05-07T10:58:26;18.75;;;12.93;;
31966;SDS011;18496;52.042;6.812;2023-05-07T11:11:56;18.50;;;12.25;;
31966;SDS011;18496;52.042;6.812;2023-05-07T11:17:01;16.95;;;11.43;;
31966;SDS011;18496;52.042;6.812;2023-05-07T11:19:06;19.08;;;12.65;;
31966;SDS011;18496;52.042;6.812;2023-05-07T11:21:31;15.63;;;11.68;;
31966;SDS011;18496;52.042;6.812;2023-05-07T11:26:05;16.63;;;11.57;;
31966;SDS011;18496;52.042;6.812;2023-05-07T11:28:10;17.83;;;11.70;;
31966;SDS011;18496;52.042;6.812;2023-05-07T11:30:17;20.20;;;12.20;;
31966;SDS011;18496;52.042;6.812;2023-05-07T11:32:25;19.63;;;13.05;;
31966;SDS011;18496;52.042;6.812;2023-05-07T11:34:34;19.02;;;12.88;;
31966;SDS011;18496;52.042;6.812;2023-05-07T11:36:41;22.20;;;14.38;;
31966;SDS011;18496;52.042;6.812;2023-05-07T11:38:49;21.02;;;13.07;;
31966;SDS011;18496;52.042;6.812;2023-05-07T11:40:55;17.67;;;12.38;;
31966;SDS011;18496;52.042;6.812;2023-05-07T11:42:59;16.38;;;11.57;;
31966;SDS011;18496;52.042;6.812;2023-05-07T11:45:14;18.95;;;11.90;;
31966;SDS011;18496;52.042;6.812;2023-05-07T11:47:29;19.98;;;12.68;;
31966;SDS011;18496;52.042;6.812;2023-05-07T11:49:33;17.50;;;11.68;;
31966;SDS011;18496;52.042;6.812;2023-05-07T11:51:37;18.17;;;11.85;;
31966;SDS011;18496;52.042;6.812;2023-05-07T11:53:42;19.13;;;10.95;;
31966;SDS011;18496;52.042;6.812;2023-05-07T11:55:46;22.02;;;11.90;;
31966;SDS011;18496;52.042;6.812;2023-05-07T11:57:50;17.20;;;11.88;;
31966;SDS011;18496;52.042;6.812;2023-05-07T11:59:54;18.02;;;11.98;;
31966;SDS011;18496;52.042;6.812;2023-05-07T12:01:59;22.95;;;11.93;;
31966;SDS011;18496;52.042;6.812;2023-05-07T12:04:02;14.95;;;10.02;;
31966;SDS011;18496;52.042;6.812;2023-05-07T12:06:07;16.23;;;11.93;;
31966;SDS011;18496;52.042;6.812;2023-05-07T12:08:15;16.50;;;12.10;;
31966;SDS011;18496;52.042;6.812;2023-05-07T12:10:19;18.63;;;12.70;;
31966;SDS011;18496;52.042;6.812;2023-05-07T12:12:23;17.88;;;11.77;;
31966;SDS011;18496;52.042;6.812;2023-05-07T12:14:27;20.42;;;12.65;;
31966;SDS011;18496;52.042;6.812;2023-05-07T12:16:32;19.30;;;11.82;;
31966;SDS011;18496;52.042;6.812;2023-05-07T12:18:36;15.45;;;12.27;;
31966;SDS011;18496;52.042;6.812;2023-05-07T12:20:40;16.73;;;12.27;;
31966;SDS011;18496;52.042;6.812;2023-05-07T12:22:44;21.98;;;13.52;;
31966;SDS011;18496;52.042;6.812;2023-05-07T12:24:49;22.80;;;12.65;;
31966;SDS011;18496;52.042;6.812;2023-05-07T12:26:59;18.48;;;12.48;;
31966;SDS011;18496;52.042;6.812;2023-05-07T12:29:03;17.58;;;12.18;;
31966;SDS011;18496;52.042;6.812;2023-05-07T12:31:07;19.85;;;12.45;;
31966;SDS011;18496;52.042;6.812;2023-05-07T12:33:11;18.13;;;12.35;;
31966;SDS011;18496;52.042;6.812;2023-05-07T12:35:15;17.55;;;12.95;;
31966;SDS011;18496;52.042;6.812;2023-05-07T12:37:25;18.33;;;13.40;;
31966;SDS011;18496;52.042;6.812;2023-05-07T12:39:29;14.43;;;11.40;;
31966;SDS011;18496;52.042;6.812;2023-05-07T12:41:52;16.52;;;10.60;;
31966;SDS011;18496;52.042;6.812;2023-05-07T12:43:59;18.48;;;10.55;;